Takotna, Alaska
Current Conditions -  °F | °C
As of 12:55 AM on Monday 26 Jan 2015 (Local Time) from PATL Reporting Station
Scattered Clouds Scattered Clouds  
Wind Chill: -24°   Ceiling: Unl
Heat Index: -24°   Visibility: 10mi
Dew Point: -29°   Wind: 3mph
Humidity: 76%   Direction: 80°E
Pressure: 30.1"   Gusts: NA
Location:  62.99°N, 156.09°W
Report Text: PATL 260955Z AUTO 08003KT 10SM SCT250 M31/M34 A3010 RMK AO2 SLP255 T13091339 412891319
Loading
Personal Weather Stations






























Interactive Weather Map New forecast layout! Learn more

10-Day Weather Forecast

Advertisements
Track Severe Weather on mobile